Página principal
METAR-TAF:

METAR-TAF

Aeroportos :

Nanning, China

latitude: 22-49N, longitude: 108-21E, altura: 73 m

Observação actual do tempo

O boletim foi feito há 39 minutos, às 04:00 UTC
Vento 8 kt de su-sudeste, variando entre es-sudeste e su-sudoeste
Temperatura 23°C
Humidade 78%
Pressão 1016 hPa
Visibilidade 10 km ou mais
Nuvens dispersasa uma altura de 1600 ft

METAR: ZGNN 230400Z 16004MPS 120V200 9999 SCT016 23/19 Q1016 NOSIG

Hora: 12:39 (04:39 UTC)

Previsão

O boletim foi feito há 7 horas e 33 minutos, às 21:06 UTC
Previsão válida de 23 às 00 UTC a 23 às 24 UTC
Vento 6 kt de su-sudeste
Visibilidade: 5000 m
Nuvens dispersasa uma altura de 3000 ft
neblina

TAF: ZGNN 222106Z 2300/2324 16003MPS 5000 BR SCT030 TX25/2307Z TN18/2322Z

Observações e previsões do tempo de mais de 4000 aeroportos (mensagens METAR e TAF).

As estações disponíveis são os pontos amarelos e vermelhos sobre o mapa.

Mova o rato sobre o mapa para ver o nome da estação.

Depois clique no ponto para visualizar as observações e previsões meteorológicas.

Para alterar o mapa : clique nos botões verdes com uma cruz preta para aumentar o zoom; no botão verde com uma pitada de zoom; ou nas setas verdes para mapas adjacentes.


METAR-TAF: